METAR Data
IDs: Format: Raw Decoded Include TAF

Data at: 0450 UTC 26 Sep 2018

KJER 260353Z AUTO 18003KT 10SM CLR 14/M02 A3024 RMK AO2 SLP228 T01391022
KJER 260253Z AUTO 16003KT 10SM CLR 13/M02 A3024 RMK AO2 SLP232 T01281022 53005
KJER 260153Z AUTO 00000KT 10SM CLR 13/M03 A3022 RMK AO2 SLP230 T01281028
KJER 260053Z AUTO 22005KT 10SM CLR 17/M02 A3022 RMK AO2 SLP224 T01721017
KJER 252353Z AUTO 22004KT 10SM CLR 19/M03 A3022 RMK AO2 SLP222 T01891028 10194 20144 56010
KJER 252253Z AUTO 27004KT 3SM HZ CLR 19/M03 A3022 RMK AO2 SLP223 T01941033
KJER 252153Z AUTO 24005KT 10SM CLR 19/M04 A3023 RMK AO2 SLP223 T01941039
KJER 252053Z AUTO 15004KT 10SM CLR 18/M04 A3025 RMK AO2 SLP232 T01831044 56012
KJER 251953Z AUTO 00000KT 10SM CLR 17/M04 A3026 RMK AO2 SLP237 T01721044
KJER 251853Z AUTO 10007KT 10SM CLR 17/M04 A3028 RMK AO2 SLP242 T01721039
KJER 251753Z AUTO 11006KT 10SM CLR 14/M03 A3029 RMK AO2 SLP247 T01441028 10156 20033 50000
KJER 251653Z AUTO 11005KT 10SM CLR 13/M02 A3031 RMK AO2 SLP255 T01281022
KJER 251553Z AUTO 10008KT 10SM CLR 11/M02 A3031 RMK AO2 SLP256 T01061022
KJER 251453Z AUTO 09008KT 10SM CLR 08/M03 A3029 RMK AO2 SLP252 T00781028 51015
KJER 251353Z AUTO 10009KT 10SM CLR 04/M03 A3028 RMK AO2 SLP250 T00441033
KJER 251253Z AUTO 08009KT 10SM CLR 04/M04 A3026 RMK AO2 SLP241 T00391039
KJER 251153Z AUTO 08008KT 10SM CLR 04/M03 A3024 RMK AO2 SLP232 T00441033 10089 20033 53008
KJER 251053Z AUTO 09008KT 10SM CLR 03/M04 A3023 RMK AO2 SLP227 T00331039
KJER 250953Z AUTO 08006KT 10SM CLR 04/M04 A3022 RMK AO2 SLP221 T00441039
KJER 250853Z AUTO 10008KT 10SM CLR 06/M04 A3022 RMK AO2 SLP219 T00561039 51012
KJER 250753Z AUTO 09007KT 10SM CLR 06/M03 A3020 RMK AO2 SLP216 T00561033
KJER 250653Z AUTO 09009KT 10SM CLR 06/M03 A3020 RMK AO2 SLP216 T00561033 401890050
KJER 250553Z AUTO 16006KT 10SM CLR 08/M03 A3018 RMK AO2 SLP207 T00831033 10172 20078 51016
KJER 250453Z AUTO 16008KT 10SM CLR 09/M03 A3017 RMK AO2 SLP205 T00891033
KJER 250353Z AUTO 17006KT 10SM CLR 10/M03 A3015 RMK AO2 SLP201 T01001028
KJER 250253Z AUTO 22008KT 10SM CLR 12/M03 A3013 RMK AO2 SLP194 T01221028 53014
KJER 250153Z AUTO 26009KT 10SM CLR 13/M04 A3009 RMK AO2 SLP187 T01281044
KJER 250053Z AUTO 25011KT 10SM CLR 16/M07 A3009 RMK AO2 SLP179 T01561072
KJER 242353Z AUTO 24015G23KT 10SM CLR 17/M09 A3008 RMK AO2 SLP173 T01721089 10189 20150 55000
KJER 242253Z AUTO 24016G24KT 10SM CLR 18/M07 A3007 RMK AO2 SLP168 T01831072
KJER 242153Z AUTO 25016G26KT 10SM CLR 18/M08 A3007 RMK AO2 PK WND 24027/2140 SLP168 T01831078
KJER 242053Z AUTO 24017G25KT 10SM CLR 19/M05 A3008 RMK AO2 PK WND 23026/2026 SLP169 T01891050 58010
KJER 241953Z AUTO 25015G21KT 10SM CLR 18/M04 A3010 RMK AO2 SLP176 T01781039
KJER 241853Z AUTO 24016KT 10SM CLR 17/M04 A3010 RMK AO2 SLP177 T01671039
KJER 241753Z AUTO 26013G20KT 10SM CLR 15/M03 A3011 RMK AO2 PK WND 23026/1726 SLP182 60000 T01501028 10150 20050 53007
KJER 241653Z AUTO 24012KT 10SM CLR 13/M02 A3010 RMK AO2 RAB39E48 SLP180 P0000 T01281022